sensor_id;sensor_type;location;lat;lon;timestamp;P1;durP1;ratioP1;P2;durP2;ratioP2
21505;SDS011;10914;48.886;9.394;2022-12-18T00:01:23;73.20;;;56.57;;
21505;SDS011;10914;48.886;9.394;2022-12-18T00:03:48;73.00;;;57.10;;
21505;SDS011;10914;48.886;9.394;2022-12-18T00:06:14;57.53;;;51.23;;
21505;SDS011;10914;48.886;9.394;2022-12-18T00:08:40;63.93;;;52.27;;
21505;SDS011;10914;48.886;9.394;2022-12-18T00:11:10;63.80;;;54.50;;
21505;SDS011;10914;48.886;9.394;2022-12-18T00:13:35;60.97;;;54.33;;
21505;SDS011;10914;48.886;9.394;2022-12-18T00:16:02;66.53;;;55.13;;
21505;SDS011;10914;48.886;9.394;2022-12-18T00:18:27;64.57;;;53.27;;
21505;SDS011;10914;48.886;9.394;2022-12-18T00:20:53;70.80;;;52.83;;
21505;SDS011;10914;48.886;9.394;2022-12-18T00:23:18;60.70;;;52.70;;
21505;SDS011;10914;48.886;9.394;2022-12-18T00:25:43;65.23;;;53.93;;
21505;SDS011;10914;48.886;9.394;2022-12-18T00:28:08;66.77;;;54.60;;
21505;SDS011;10914;48.886;9.394;2022-12-18T00:30:33;63.43;;;52.97;;
21505;SDS011;10914;48.886;9.394;2022-12-18T00:32:58;65.03;;;52.90;;
21505;SDS011;10914;48.886;9.394;2022-12-18T00:35:24;70.40;;;53.83;;
21505;SDS011;10914;48.886;9.394;2022-12-18T00:37:49;66.40;;;54.40;;
21505;SDS011;10914;48.886;9.394;2022-12-18T00:40:14;64.63;;;51.97;;
21505;SDS011;10914;48.886;9.394;2022-12-18T00:42:39;68.27;;;52.80;;
21505;SDS011;10914;48.886;9.394;2022-12-18T00:45:25;74.57;;;55.70;;
21505;SDS011;10914;48.886;9.394;2022-12-18T00:47:50;67.90;;;55.30;;
21505;SDS011;10914;48.886;9.394;2022-12-18T00:50:16;65.33;;;53.63;;
21505;SDS011;10914;48.886;9.394;2022-12-18T00:52:41;63.07;;;52.50;;
21505;SDS011;10914;48.886;9.394;2022-12-18T00:55:06;63.67;;;52.87;;
21505;SDS011;10914;48.886;9.394;2022-12-18T00:57:31;70.53;;;54.47;;
21505;SDS011;10914;48.886;9.394;2022-12-18T00:59:57;65.13;;;52.43;;
21505;SDS011;10914;48.886;9.394;2022-12-18T01:02:22;63.70;;;53.60;;
21505;SDS011;10914;48.886;9.394;2022-12-18T01:04:47;62.53;;;52.33;;
21505;SDS011;10914;48.886;9.394;2022-12-18T01:07:12;61.67;;;52.67;;
21505;SDS011;10914;48.886;9.394;2022-12-18T01:09:38;58.83;;;52.57;;
21505;SDS011;10914;48.886;9.394;2022-12-18T01:12:03;59.80;;;53.37;;
21505;SDS011;10914;48.886;9.394;2022-12-18T01:14:28;55.37;;;48.83;;
21505;SDS011;10914;48.886;9.394;2022-12-18T01:16:53;57.00;;;50.93;;
21505;SDS011;10914;48.886;9.394;2022-12-18T01:19:19;65.60;;;55.90;;
21505;SDS011;10914;48.886;9.394;2022-12-18T01:21:44;64.30;;;57.47;;
21505;SDS011;10914;48.886;9.394;2022-12-18T01:24:09;66.30;;;58.97;;
21505;SDS011;10914;48.886;9.394;2022-12-18T01:26:36;63.07;;;56.10;;
21505;SDS011;10914;48.886;9.394;2022-12-18T01:29:01;63.93;;;54.40;;
21505;SDS011;10914;48.886;9.394;2022-12-18T01:31:27;66.63;;;56.07;;
21505;SDS011;10914;48.886;9.394;2022-12-18T01:33:53;63.43;;;54.67;;
21505;SDS011;10914;48.886;9.394;2022-12-18T01:36:19;67.97;;;55.97;;
21505;SDS011;10914;48.886;9.394;2022-12-18T01:38:45;69.53;;;56.40;;
21505;SDS011;10914;48.886;9.394;2022-12-18T01:41:11;63.57;;;54.23;;
21505;SDS011;10914;48.886;9.394;2022-12-18T01:43:47;67.70;;;56.30;;
21505;SDS011;10914;48.886;9.394;2022-12-18T01:46:12;63.90;;;56.13;;
21505;SDS011;10914;48.886;9.394;2022-12-18T01:48:38;63.60;;;53.93;;
21505;SDS011;10914;48.886;9.394;2022-12-18T01:51:04;63.60;;;52.90;;
21505;SDS011;10914;48.886;9.394;2022-12-18T01:53:30;61.27;;;53.27;;
21505;SDS011;10914;48.886;9.394;2022-12-18T01:55:56;66.43;;;53.87;;
21505;SDS011;10914;48.886;9.394;2022-12-18T01:58:30;63.27;;;53.93;;
21505;SDS011;10914;48.886;9.394;2022-12-18T02:00:57;60.27;;;51.33;;
21505;SDS011;10914;48.886;9.394;2022-12-18T02:03:23;67.63;;;53.47;;
21505;SDS011;10914;48.886;9.394;2022-12-18T02:08:21;61.40;;;54.67;;
21505;SDS011;10914;48.886;9.394;2022-12-18T02:10:54;63.17;;;56.27;;
21505;SDS011;10914;48.886;9.394;2022-12-18T02:18:19;61.33;;;54.60;;
21505;SDS011;10914;48.886;9.394;2022-12-18T02:20:47;62.33;;;53.47;;
21505;SDS011;10914;48.886;9.394;2022-12-18T02:23:22;59.97;;;53.00;;
21505;SDS011;10914;48.886;9.394;2022-12-18T02:28:30;61.83;;;50.40;;
21505;SDS011;10914;48.886;9.394;2022-12-18T02:34:00;62.47;;;55.90;;
21505;SDS011;10914;48.886;9.394;2022-12-18T02:36:27;62.23;;;55.87;;
21505;SDS011;10914;48.886;9.394;2022-12-18T02:38:53;59.20;;;52.83;;
21505;SDS011;10914;48.886;9.394;2022-12-18T02:41:19;59.00;;;52.87;;
21505;SDS011;10914;48.886;9.394;2022-12-18T02:43:52;57.33;;;51.13;;
21505;SDS011;10914;48.886;9.394;2022-12-18T02:49:08;59.57;;;52.90;;
21505;SDS011;10914;48.886;9.394;2022-12-18T02:51:38;60.33;;;53.03;;
21505;SDS011;10914;48.886;9.394;2022-12-18T02:54:51;61.43;;;55.23;;
21505;SDS011;10914;48.886;9.394;2022-12-18T02:56:51;61.20;;;54.83;;
21505;SDS011;10914;48.886;9.394;2022-12-18T02:59:28;63.00;;;54.80;;
21505;SDS011;10914;48.886;9.394;2022-12-18T03:01:57;63.93;;;57.43;;
21505;SDS011;10914;48.886;9.394;2022-12-18T03:04:29;61.57;;;53.87;;
21505;SDS011;10914;48.886;9.394;2022-12-18T03:06:56;63.57;;;56.87;;
21505;SDS011;10914;48.886;9.394;2022-12-18T03:09:25;63.93;;;56.63;;
21505;SDS011;10914;48.886;9.394;2022-12-18T03:11:54;61.00;;;54.20;;
21505;SDS011;10914;48.886;9.394;2022-12-18T03:14:38;62.80;;;56.27;;
21505;SDS011;10914;48.886;9.394;2022-12-18T03:17:05;59.43;;;52.97;;
21505;SDS011;10914;48.886;9.394;2022-12-18T03:19:37;59.23;;;52.00;;
21505;SDS011;10914;48.886;9.394;2022-12-18T03:22:04;56.63;;;49.70;;
21505;SDS011;10914;48.886;9.394;2022-12-18T03:24:31;61.10;;;55.00;;
21505;SDS011;10914;48.886;9.394;2022-12-18T03:27:02;56.83;;;51.13;;
21505;SDS011;10914;48.886;9.394;2022-12-18T03:29:34;60.57;;;54.37;;
21505;SDS011;10914;48.886;9.394;2022-12-18T03:32:02;61.83;;;52.43;;
21505;SDS011;10914;48.886;9.394;2022-12-18T03:34:30;55.50;;;49.63;;
21505;SDS011;10914;48.886;9.394;2022-12-18T03:36:55;65.67;;;55.60;;
21505;SDS011;10914;48.886;9.394;2022-12-18T03:39:21;63.47;;;53.27;;
21505;SDS011;10914;48.886;9.394;2022-12-18T03:41:48;60.43;;;51.33;;
21505;SDS011;10914;48.886;9.394;2022-12-18T03:49:45;60.33;;;52.10;;
21505;SDS011;10914;48.886;9.394;2022-12-18T03:52:20;56.70;;;50.73;;
21505;SDS011;10914;48.886;9.394;2022-12-18T03:54:48;64.97;;;53.20;;
21505;SDS011;10914;48.886;9.394;2022-12-18T03:57:16;59.30;;;53.03;;
21505;SDS011;10914;48.886;9.394;2022-12-18T03:59:42;59.10;;;53.00;;
21505;SDS011;10914;48.886;9.394;2022-12-18T04:02:08;62.17;;;52.57;;
21505;SDS011;10914;48.886;9.394;2022-12-18T04:04:34;59.47;;;51.90;;
21505;SDS011;10914;48.886;9.394;2022-12-18T04:07:00;54.90;;;49.10;;
21505;SDS011;10914;48.886;9.394;2022-12-18T04:09:26;57.63;;;51.33;;
21505;SDS011;10914;48.886;9.394;2022-12-18T04:11:52;65.63;;;54.30;;
21505;SDS011;10914;48.886;9.394;2022-12-18T04:14:17;65.63;;;53.97;;
21505;SDS011;10914;48.886;9.394;2022-12-18T04:16:42;60.30;;;53.17;;
21505;SDS011;10914;48.886;9.394;2022-12-18T04:19:07;63.63;;;53.23;;
21505;SDS011;10914;48.886;9.394;2022-12-18T04:21:33;60.40;;;53.87;;
21505;SDS011;10914;48.886;9.394;2022-12-18T04:23:58;60.33;;;53.80;;
21505;SDS011;10914;48.886;9.394;2022-12-18T04:26:23;59.83;;;53.10;;
21505;SDS011;10914;48.886;9.394;2022-12-18T04:28:48;60.87;;;52.53;;
21505;SDS011;10914;48.886;9.394;2022-12-18T04:31:14;62.63;;;54.27;;
21505;SDS011;10914;48.886;9.394;2022-12-18T04:33:39;61.17;;;54.33;;
21505;SDS011;10914;48.886;9.394;2022-12-18T04:36:04;67.67;;;55.27;;
21505;SDS011;10914;48.886;9.394;2022-12-18T04:38:29;67.63;;;56.77;;
21505;SDS011;10914;48.886;9.394;2022-12-18T04:40:55;75.93;;;57.60;;
21505;SDS011;10914;48.886;9.394;2022-12-18T04:43:20;65.93;;;55.73;;
21505;SDS011;10914;48.886;9.394;2022-12-18T04:45:45;65.07;;;57.50;;
21505;SDS011;10914;48.886;9.394;2022-12-18T04:48:10;64.87;;;56.60;;
21505;SDS011;10914;48.886;9.394;2022-12-18T04:50:35;69.57;;;57.73;;
21505;SDS011;10914;48.886;9.394;2022-12-18T04:53:01;68.87;;;57.90;;
21505;SDS011;10914;48.886;9.394;2022-12-18T04:55:26;68.60;;;57.00;;
21505;SDS011;10914;48.886;9.394;2022-12-18T04:57:52;68.33;;;60.60;;
21505;SDS011;10914;48.886;9.394;2022-12-18T05:00:17;67.97;;;59.23;;
21505;SDS011;10914;48.886;9.394;2022-12-18T05:02:42;71.43;;;59.20;;
21505;SDS011;10914;48.886;9.394;2022-12-18T05:05:07;64.63;;;55.40;;
21505;SDS011;10914;48.886;9.394;2022-12-18T05:07:33;64.40;;;57.40;;
21505;SDS011;10914;48.886;9.394;2022-12-18T05:09:58;65.03;;;56.10;;
21505;SDS011;10914;48.886;9.394;2022-12-18T05:12:23;62.40;;;55.47;;
21505;SDS011;10914;48.886;9.394;2022-12-18T05:14:48;62.37;;;55.67;;
21505;SDS011;10914;48.886;9.394;2022-12-18T05:17:13;64.67;;;55.23;;
21505;SDS011;10914;48.886;9.394;2022-12-18T05:19:39;64.93;;;54.13;;
21505;SDS011;10914;48.886;9.394;2022-12-18T05:22:04;68.10;;;55.60;;
21505;SDS011;10914;48.886;9.394;2022-12-18T05:24:29;62.80;;;53.07;;
21505;SDS011;10914;48.886;9.394;2022-12-18T05:26:54;65.53;;;56.20;;
21505;SDS011;10914;48.886;9.394;2022-12-18T05:29:19;70.30;;;56.30;;
21505;SDS011;10914;48.886;9.394;2022-12-18T05:31:45;62.40;;;55.53;;
21505;SDS011;10914;48.886;9.394;2022-12-18T05:34:10;70.63;;;56.83;;
21505;SDS011;10914;48.886;9.394;2022-12-18T05:36:35;64.53;;;54.73;;
21505;SDS011;10914;48.886;9.394;2022-12-18T05:39:00;68.33;;;55.47;;
21505;SDS011;10914;48.886;9.394;2022-12-18T05:41:26;66.33;;;53.87;;
21505;SDS011;10914;48.886;9.394;2022-12-18T05:43:51;68.70;;;55.80;;
21505;SDS011;10914;48.886;9.394;2022-12-18T05:46:16;69.07;;;50.83;;
21505;SDS011;10914;48.886;9.394;2022-12-18T05:48:44;68.87;;;54.63;;
21505;SDS011;10914;48.886;9.394;2022-12-18T05:51:11;70.53;;;54.77;;
21505;SDS011;10914;48.886;9.394;2022-12-18T05:53:36;62.10;;;52.23;;
21505;SDS011;10914;48.886;9.394;2022-12-18T05:56:02;62.33;;;50.77;;
21505;SDS011;10914;48.886;9.394;2022-12-18T05:58:28;67.97;;;53.47;;
21505;SDS011;10914;48.886;9.394;2022-12-18T06:00:53;62.43;;;49.93;;
21505;SDS011;10914;48.886;9.394;2022-12-18T06:03:18;75.40;;;54.13;;
21505;SDS011;10914;48.886;9.394;2022-12-18T06:05:44;66.37;;;50.67;;
21505;SDS011;10914;48.886;9.394;2022-12-18T06:08:10;63.77;;;50.83;;
21505;SDS011;10914;48.886;9.394;2022-12-18T06:10:35;61.03;;;51.47;;
21505;SDS011;10914;48.886;9.394;2022-12-18T06:13:00;63.97;;;49.70;;
21505;SDS011;10914;48.886;9.394;2022-12-18T06:15:26;74.30;;;54.47;;
21505;SDS011;10914;48.886;9.394;2022-12-18T06:17:51;67.60;;;49.67;;
21505;SDS011;10914;48.886;9.394;2022-12-18T06:20:16;71.07;;;52.03;;
21505;SDS011;10914;48.886;9.394;2022-12-18T06:22:41;67.13;;;51.67;;
21505;SDS011;10914;48.886;9.394;2022-12-18T06:25:07;71.90;;;51.57;;
21505;SDS011;10914;48.886;9.394;2022-12-18T06:27:32;75.37;;;54.37;;
21505;SDS011;10914;48.886;9.394;2022-12-18T06:29:58;71.33;;;52.67;;
21505;SDS011;10914;48.886;9.394;2022-12-18T06:32:24;72.80;;;51.17;;
21505;SDS011;10914;48.886;9.394;2022-12-18T06:34:49;70.30;;;53.43;;
21505;SDS011;10914;48.886;9.394;2022-12-18T06:37:14;71.23;;;51.37;;
21505;SDS011;10914;48.886;9.394;2022-12-18T06:39:39;63.20;;;50.33;;
21505;SDS011;10914;48.886;9.394;2022-12-18T06:42:04;57.73;;;48.60;;
21505;SDS011;10914;48.886;9.394;2022-12-18T06:44:30;61.53;;;48.73;;
21505;SDS011;10914;48.886;9.394;2022-12-18T06:46:55;63.67;;;50.43;;
21505;SDS011;10914;48.886;9.394;2022-12-18T06:49:20;61.30;;;51.17;;
21505;SDS011;10914;48.886;9.394;2022-12-18T06:51:45;59.63;;;50.30;;
21505;SDS011;10914;48.886;9.394;2022-12-18T06:54:11;69.10;;;53.17;;
21505;SDS011;10914;48.886;9.394;2022-12-18T06:56:36;68.57;;;51.90;;
21505;SDS011;10914;48.886;9.394;2022-12-18T06:59:01;76.33;;;52.97;;
21505;SDS011;10914;48.886;9.394;2022-12-18T07:01:26;64.70;;;51.50;;
21505;SDS011;10914;48.886;9.394;2022-12-18T07:03:52;68.57;;;50.80;;
21505;SDS011;10914;48.886;9.394;2022-12-18T07:06:19;67.03;;;53.10;;
21505;SDS011;10914;48.886;9.394;2022-12-18T07:08:45;64.07;;;53.23;;
21505;SDS011;10914;48.886;9.394;2022-12-18T07:11:11;66.53;;;53.27;;
21505;SDS011;10914;48.886;9.394;2022-12-18T07:13:36;64.50;;;53.20;;
21505;SDS011;10914;48.886;9.394;2022-12-18T07:16:08;69.93;;;55.97;;
21505;SDS011;10914;48.886;9.394;2022-12-18T07:18:34;81.07;;;59.73;;
21505;SDS011;10914;48.886;9.394;2022-12-18T07:21:02;68.57;;;53.83;;
21505;SDS011;10914;48.886;9.394;2022-12-18T07:23:27;73.63;;;57.90;;
21505;SDS011;10914;48.886;9.394;2022-12-18T07:25:52;73.10;;;56.13;;
21505;SDS011;10914;48.886;9.394;2022-12-18T07:28:18;68.20;;;54.53;;
21505;SDS011;10914;48.886;9.394;2022-12-18T07:30:43;75.70;;;54.60;;
21505;SDS011;10914;48.886;9.394;2022-12-18T07:33:08;79.67;;;57.70;;
21505;SDS011;10914;48.886;9.394;2022-12-18T07:35:33;77.70;;;59.47;;
21505;SDS011;10914;48.886;9.394;2022-12-18T07:37:58;78.93;;;58.73;;
21505;SDS011;10914;48.886;9.394;2022-12-18T07:40:24;76.17;;;59.00;;
21505;SDS011;10914;48.886;9.394;2022-12-18T07:42:49;76.33;;;58.20;;
21505;SDS011;10914;48.886;9.394;2022-12-18T07:45:14;76.93;;;56.57;;
21505;SDS011;10914;48.886;9.394;2022-12-18T07:47:39;73.97;;;57.60;;
21505;SDS011;10914;48.886;9.394;2022-12-18T07:50:06;76.27;;;57.13;;
21505;SDS011;10914;48.886;9.394;2022-12-18T07:52:31;77.97;;;59.03;;
21505;SDS011;10914;48.886;9.394;2022-12-18T07:54:56;90.87;;;58.80;;
21505;SDS011;10914;48.886;9.394;2022-12-18T07:57:22;91.47;;;60.37;;
21505;SDS011;10914;48.886;9.394;2022-12-18T07:59:47;107.40;;;65.43;;
21505;SDS011;10914;48.886;9.394;2022-12-18T08:02:12;98.93;;;62.83;;
21505;SDS011;10914;48.886;9.394;2022-12-18T08:04:37;95.40;;;62.37;;
21505;SDS011;10914;48.886;9.394;2022-12-18T08:07:03;82.17;;;59.80;;
21505;SDS011;10914;48.886;9.394;2022-12-18T08:09:28;88.47;;;61.63;;
21505;SDS011;10914;48.886;9.394;2022-12-18T08:11:53;94.10;;;63.93;;
21505;SDS011;10914;48.886;9.394;2022-12-18T08:14:18;89.00;;;59.07;;
21505;SDS011;10914;48.886;9.394;2022-12-18T08:16:44;76.80;;;59.23;;
21505;SDS011;10914;48.886;9.394;2022-12-18T08:19:10;75.13;;;56.23;;
21505;SDS011;10914;48.886;9.394;2022-12-18T08:21:35;71.07;;;55.97;;
21505;SDS011;10914;48.886;9.394;2022-12-18T08:24:01;73.83;;;55.30;;
21505;SDS011;10914;48.886;9.394;2022-12-18T08:26:28;71.10;;;55.73;;
21505;SDS011;10914;48.886;9.394;2022-12-18T08:28:57;71.10;;;54.33;;
21505;SDS011;10914;48.886;9.394;2022-12-18T08:31:23;74.93;;;55.70;;
21505;SDS011;10914;48.886;9.394;2022-12-18T08:33:49;68.00;;;54.17;;
21505;SDS011;10914;48.886;9.394;2022-12-18T08:36:15;76.55;;;54.58;;
21505;SDS011;10914;48.886;9.394;2022-12-18T08:38:40;75.07;;;56.45;;
21505;SDS011;10914;48.886;9.394;2022-12-18T08:41:06;76.70;;;54.53;;
21505;SDS011;10914;48.886;9.394;2022-12-18T08:43:32;70.78;;;54.83;;
21505;SDS011;10914;48.886;9.394;2022-12-18T08:46:17;81.50;;;55.97;;
21505;SDS011;10914;48.886;9.394;2022-12-18T08:48:42;76.90;;;62.53;;
21505;SDS011;10914;48.886;9.394;2022-12-18T08:51:08;82.63;;;69.40;;
21505;SDS011;10914;48.886;9.394;2022-12-18T08:53:34;83.97;;;66.30;;
21505;SDS011;10914;48.886;9.394;2022-12-18T08:55:59;77.90;;;65.75;;
21505;SDS011;10914;48.886;9.394;2022-12-18T08:58:25;81.63;;;59.33;;
21505;SDS011;10914;48.886;9.394;2022-12-18T09:00:50;75.50;;;55.22;;
21505;SDS011;10914;48.886;9.394;2022-12-18T09:03:17;77.35;;;52.10;;
21505;SDS011;10914;48.886;9.394;2022-12-18T09:05:42;78.75;;;52.70;;
21505;SDS011;10914;48.886;9.394;2022-12-18T09:08:08;75.25;;;50.67;;
21505;SDS011;10914;48.886;9.394;2022-12-18T09:10:33;78.78;;;52.78;;
21505;SDS011;10914;48.886;9.394;2022-12-18T09:12:59;72.78;;;51.30;;
21505;SDS011;10914;48.886;9.394;2022-12-18T09:15:24;71.75;;;51.88;;
21505;SDS011;10914;48.886;9.394;2022-12-18T09:17:49;67.97;;;51.40;;
21505;SDS011;10914;48.886;9.394;2022-12-18T09:20:16;72.97;;;53.28;;
21505;SDS011;10914;48.886;9.394;2022-12-18T09:22:41;74.10;;;51.65;;
21505;SDS011;10914;48.886;9.394;2022-12-18T09:25:07;63.72;;;49.78;;
21505;SDS011;10914;48.886;9.394;2022-12-18T09:27:35;69.05;;;49.58;;
21505;SDS011;10914;48.886;9.394;2022-12-18T09:30:00;67.03;;;50.85;;
21505;SDS011;10914;48.886;9.394;2022-12-18T09:32:25;66.45;;;51.63;;
21505;SDS011;10914;48.886;9.394;2022-12-18T09:34:51;72.85;;;65.40;;
21505;SDS011;10914;48.886;9.394;2022-12-18T09:37:16;59.80;;;49.90;;
21505;SDS011;10914;48.886;9.394;2022-12-18T09:39:41;62.72;;;46.70;;
21505;SDS011;10914;48.886;9.394;2022-12-18T09:42:08;62.67;;;49.17;;
21505;SDS011;10914;48.886;9.394;2022-12-18T09:44:36;59.38;;;50.40;;
21505;SDS011;10914;48.886;9.394;2022-12-18T09:47:11;57.58;;;46.90;;
21505;SDS011;10914;48.886;9.394;2022-12-18T09:49:40;62.65;;;49.10;;
21505;SDS011;10914;48.886;9.394;2022-12-18T09:54:40;62.17;;;49.03;;
21505;SDS011;10914;48.886;9.394;2022-12-18T09:57:09;64.75;;;51.63;;
21505;SDS011;10914;48.886;9.394;2022-12-18T09:59:36;63.60;;;50.90;;
21505;SDS011;10914;48.886;9.394;2022-12-18T10:02:12;59.40;;;49.95;;
21505;SDS011;10914;48.886;9.394;2022-12-18T10:04:38;61.25;;;49.92;;
21505;SDS011;10914;48.886;9.394;2022-12-18T10:07:07;60.45;;;49.80;;
21505;SDS011;10914;48.886;9.394;2022-12-18T10:14:30;59.40;;;49.63;;
21505;SDS011;10914;48.886;9.394;2022-12-18T10:19:31;54.90;;;46.30;;
21505;SDS011;10914;48.886;9.394;2022-12-18T10:26:50;55.85;;;49.75;;
21505;SDS011;10914;48.886;9.394;2022-12-18T10:29:17;53.80;;;44.22;;
21505;SDS011;10914;48.886;9.394;2022-12-18T10:31:42;55.97;;;44.67;;
21505;SDS011;10914;48.886;9.394;2022-12-18T10:34:09;55.58;;;44.45;;
21505;SDS011;10914;48.886;9.394;2022-12-18T10:36:34;51.20;;;43.15;;
21505;SDS011;10914;48.886;9.394;2022-12-18T10:39:21;56.60;;;43.90;;
21505;SDS011;10914;48.886;9.394;2022-12-18T10:41:46;54.97;;;43.65;;
21505;SDS011;10914;48.886;9.394;2022-12-18T10:44:12;55.40;;;43.72;;
21505;SDS011;10914;48.886;9.394;2022-12-18T10:46:40;55.20;;;44.78;;
21505;SDS011;10914;48.886;9.394;2022-12-18T10:49:07;53.13;;;44.72;;
21505;SDS011;10914;48.886;9.394;2022-12-18T10:51:43;51.60;;;43.65;;
21505;SDS011;10914;48.886;9.394;2022-12-18T10:54:15;51.28;;;44.50;;
21505;SDS011;10914;48.886;9.394;2022-12-18T10:56:41;53.35;;;43.95;;
21505;SDS011;10914;48.886;9.394;2022-12-18T10:59:08;55.00;;;44.92;;
21505;SDS011;10914;48.886;9.394;2022-12-18T11:01:55;61.13;;;50.78;;
21505;SDS011;10914;48.886;9.394;2022-12-18T11:04:22;55.15;;;49.13;;
21505;SDS011;10914;48.886;9.394;2022-12-18T11:07:01;54.78;;;49.03;;
21505;SDS011;10914;48.886;9.394;2022-12-18T11:09:29;55.10;;;48.28;;
21505;SDS011;10914;48.886;9.394;2022-12-18T11:11:55;55.60;;;46.58;;
21505;SDS011;10914;48.886;9.394;2022-12-18T11:14:28;55.30;;;45.45;;
21505;SDS011;10914;48.886;9.394;2022-12-18T11:16:54;51.63;;;44.00;;
21505;SDS011;10914;48.886;9.394;2022-12-18T11:19:22;49.08;;;43.28;;
21505;SDS011;10914;48.886;9.394;2022-12-18T11:21:49;49.47;;;43.38;;
21505;SDS011;10914;48.886;9.394;2022-12-18T11:26:48;50.13;;;43.85;;
21505;SDS011;10914;48.886;9.394;2022-12-18T11:29:17;51.38;;;45.90;;
21505;SDS011;10914;48.886;9.394;2022-12-18T11:31:43;56.78;;;46.25;;
21505;SDS011;10914;48.886;9.394;2022-12-18T11:34:30;55.03;;;46.53;;
21505;SDS011;10914;48.886;9.394;2022-12-18T11:36:57;52.92;;;45.00;;
21505;SDS011;10914;48.886;9.394;2022-12-18T11:39:36;53.83;;;44.65;;
21505;SDS011;10914;48.886;9.394;2022-12-18T11:42:14;47.30;;;42.10;;
21505;SDS011;10914;48.886;9.394;2022-12-18T11:44:53;47.38;;;41.63;;
21505;SDS011;10914;48.886;9.394;2022-12-18T11:47:30;49.65;;;41.58;;
21505;SDS011;10914;48.886;9.394;2022-12-18T11:50:00;50.70;;;42.08;;
21505;SDS011;10914;48.886;9.394;2022-12-18T11:52:31;52.58;;;45.90;;
21505;SDS011;10914;48.886;9.394;2022-12-18T11:55:00;57.35;;;51.60;;
21505;SDS011;10914;48.886;9.394;2022-12-18T11:57:34;57.33;;;51.28;;
21505;SDS011;10914;48.886;9.394;2022-12-18T12:08:05;54.75;;;49.17;;
21505;SDS011;10914;48.886;9.394;2022-12-18T12:15:57;55.22;;;47.78;;
21505;SDS011;10914;48.886;9.394;2022-12-18T12:26:04;58.35;;;52.70;;
21505;SDS011;10914;48.886;9.394;2022-12-18T12:33:58;57.45;;;51.53;;
21505;SDS011;10914;48.886;9.394;2022-12-18T12:36:42;53.42;;;44.40;;
21505;SDS011;10914;48.886;9.394;2022-12-18T12:39:10;50.47;;;43.45;;
21505;SDS011;10914;48.886;9.394;2022-12-18T12:41:37;48.67;;;43.45;;
21505;SDS011;10914;48.886;9.394;2022-12-18T12:44:24;52.75;;;44.78;;
21505;SDS011;10914;48.886;9.394;2022-12-18T12:46:50;52.80;;;43.90;;
21505;SDS011;10914;48.886;9.394;2022-12-18T12:49:20;50.53;;;43.97;;
21505;SDS011;10914;48.886;9.394;2022-12-18T12:52:06;51.22;;;42.63;;
21505;SDS011;10914;48.886;9.394;2022-12-18T12:54:32;49.10;;;42.95;;
21505;SDS011;10914;48.886;9.394;2022-12-18T13:02:08;52.63;;;44.03;;
21505;SDS011;10914;48.886;9.394;2022-12-18T13:09:32;52.08;;;43.15;;
21505;SDS011;10914;48.886;9.394;2022-12-18T13:12:01;51.88;;;44.15;;
21505;SDS011;10914;48.886;9.394;2022-12-18T13:14:46;51.20;;;43.83;;
21505;SDS011;10914;48.886;9.394;2022-12-18T13:19:49;58.30;;;45.90;;
21505;SDS011;10914;48.886;9.394;2022-12-18T13:24:46;52.90;;;43.60;;
21505;SDS011;10914;48.886;9.394;2022-12-18T13:29:56;49.92;;;44.55;;
21505;SDS011;10914;48.886;9.394;2022-12-18T13:32:22;55.88;;;45.17;;
21505;SDS011;10914;48.886;9.394;2022-12-18T13:34:47;50.55;;;44.20;;
21505;SDS011;10914;48.886;9.394;2022-12-18T13:39:57;52.60;;;43.80;;
21505;SDS011;10914;48.886;9.394;2022-12-18T13:47:56;52.78;;;44.20;;
21505;SDS011;10914;48.886;9.394;2022-12-18T13:50:24;50.70;;;44.85;;
21505;SDS011;10914;48.886;9.394;2022-12-18T13:52:50;54.88;;;45.30;;
21505;SDS011;10914;48.886;9.394;2022-12-18T13:55:16;49.22;;;43.83;;
21505;SDS011;10914;48.886;9.394;2022-12-18T13:57:43;54.38;;;45.15;;
21505;SDS011;10914;48.886;9.394;2022-12-18T14:00:27;52.05;;;45.08;;
21505;SDS011;10914;48.886;9.394;2022-12-18T14:02:54;50.97;;;43.45;;
21505;SDS011;10914;48.886;9.394;2022-12-18T14:05:23;54.42;;;45.90;;
21505;SDS011;10914;48.886;9.394;2022-12-18T14:07:48;61.42;;;55.08;;
21505;SDS011;10914;48.886;9.394;2022-12-18T14:10:13;55.58;;;44.42;;
21505;SDS011;10914;48.886;9.394;2022-12-18T14:12:40;58.30;;;47.75;;
21505;SDS011;10914;48.886;9.394;2022-12-18T14:17:47;62.88;;;56.63;;
21505;SDS011;10914;48.886;9.394;2022-12-18T14:20:13;66.53;;;59.95;;
21505;SDS011;10914;48.886;9.394;2022-12-18T14:22:39;72.13;;;65.50;;
21505;SDS011;10914;48.886;9.394;2022-12-18T14:28:22;59.55;;;52.25;;
21505;SDS011;10914;48.886;9.394;2022-12-18T14:30:32;56.25;;;47.08;;
21505;SDS011;10914;48.886;9.394;2022-12-18T14:33:09;56.10;;;44.83;;
21505;SDS011;10914;48.886;9.394;2022-12-18T14:35:35;51.38;;;43.97;;
21505;SDS011;10914;48.886;9.394;2022-12-18T14:40:35;55.90;;;45.13;;
21505;SDS011;10914;48.886;9.394;2022-12-18T14:43:00;55.08;;;45.33;;
21505;SDS011;10914;48.886;9.394;2022-12-18T14:45:44;54.38;;;45.30;;
21505;SDS011;10914;48.886;9.394;2022-12-18T14:50:36;52.75;;;45.22;;
21505;SDS011;10914;48.886;9.394;2022-12-18T14:53:02;57.53;;;45.13;;
21505;SDS011;10914;48.886;9.394;2022-12-18T14:55:27;57.90;;;46.95;;
21505;SDS011;10914;48.886;9.394;2022-12-18T14:57:53;55.67;;;45.53;;
21505;SDS011;10914;48.886;9.394;2022-12-18T15:00:20;57.45;;;46.75;;
21505;SDS011;10914;48.886;9.394;2022-12-18T15:02:46;59.90;;;49.55;;
21505;SDS011;10914;48.886;9.394;2022-12-18T15:10:20;64.05;;;52.90;;
21505;SDS011;10914;48.886;9.394;2022-12-18T15:12:46;63.45;;;56.85;;
21505;SDS011;10914;48.886;9.394;2022-12-18T15:17:59;58.20;;;51.85;;
21505;SDS011;10914;48.886;9.394;2022-12-18T15:20:25;57.47;;;50.90;;
21505;SDS011;10914;48.886;9.394;2022-12-18T15:22:50;61.80;;;50.45;;
21505;SDS011;10914;48.886;9.394;2022-12-18T15:28:21;60.17;;;48.33;;
21505;SDS011;10914;48.886;9.394;2022-12-18T15:30:57;57.10;;;46.20;;
21505;SDS011;10914;48.886;9.394;2022-12-18T15:33:23;61.20;;;48.63;;
21505;SDS011;10914;48.886;9.394;2022-12-18T15:35:55;62.92;;;47.38;;
21505;SDS011;10914;48.886;9.394;2022-12-18T15:38:21;61.58;;;48.58;;
21505;SDS011;10914;48.886;9.394;2022-12-18T15:40:46;59.53;;;48.08;;
21505;SDS011;10914;48.886;9.394;2022-12-18T15:43:11;60.85;;;48.90;;
21505;SDS011;10914;48.886;9.394;2022-12-18T15:46:16;61.53;;;47.38;;
21505;SDS011;10914;48.886;9.394;2022-12-18T15:48:43;59.80;;;48.20;;
21505;SDS011;10914;48.886;9.394;2022-12-18T15:51:11;59.33;;;47.72;;
21505;SDS011;10914;48.886;9.394;2022-12-18T15:53:38;55.75;;;48.55;;
21505;SDS011;10914;48.886;9.394;2022-12-18T15:56:04;61.88;;;48.00;;
21505;SDS011;10914;48.886;9.394;2022-12-18T15:58:48;59.85;;;48.50;;
21505;SDS011;10914;48.886;9.394;2022-12-18T16:01:13;57.70;;;47.80;;
21505;SDS011;10914;48.886;9.394;2022-12-18T16:03:39;62.22;;;49.95;;
21505;SDS011;10914;48.886;9.394;2022-12-18T16:06:05;65.95;;;54.70;;
21505;SDS011;10914;48.886;9.394;2022-12-18T16:08:30;66.07;;;52.65;;
21505;SDS011;10914;48.886;9.394;2022-12-18T16:10:56;67.15;;;55.60;;
21505;SDS011;10914;48.886;9.394;2022-12-18T16:13:22;67.78;;;57.40;;
21505;SDS011;10914;48.886;9.394;2022-12-18T16:15:47;66.03;;;55.95;;